Time;durP1;ratioP1;P1;durP2;ratioP2;P2;SDS_P1;SDS_P2;PMS_P1;PMS_P2;Temp;Humidity;BMP_temperature;BMP_pressure;BME280_temperature;BME280_humidity;BME280_pressure;Samples;Min_cycle;Max_cycle;Signal;HPM_P1;HPM_P2
2022/12/18 00:02:30;;;;;;;15.02;8.43;;;;;;;-4.08;99.14;100214.44;5050406;28;20495;-60
2022/12/18 00:05:15;;;;;;;16.00;8.77;;;;;;;-4.13;99.81;100208.38;5044145;28;20493;-59
2022/12/18 00:08:00;;;;;;;14.52;8.50;;;;;;;-4.14;99.95;100211.75;5051492;28;20115;-60
2022/12/18 00:10:45;;;;;;;17.08;9.32;;;;;;;-4.19;100.00;100215.97;5049238;28;20555;-60
2022/12/18 00:13:30;;;;;;;15.75;9.02;;;;;;;-4.18;100.00;100204.88;5048542;28;20037;-59
2022/12/18 00:16:20;;;;;;;15.70;9.23;;;;;;;-4.17;100.00;100211.72;5048750;28;20080;-59
2022/12/18 00:19:05;;;;;;;16.35;8.73;;;;;;;-4.36;100.00;100214.84;5045114;28;20067;-60
2022/12/18 00:21:49;;;;;;;16.48;9.73;;;;;;;-4.42;100.00;100219.88;5041380;28;20099;-59
2022/12/18 00:24:34;;;;;;;17.45;9.98;;;;;;;-4.64;100.00;100204.19;5051005;28;20109;-58
2022/12/18 00:27:18;;;;;;;18.65;10.52;;;;;;;-4.52;100.00;100208.63;5050456;28;20103;-59
2022/12/18 00:30:04;;;;;;;16.85;9.48;;;;;;;-4.49;100.00;100206.13;5050679;28;20088;-59
2022/12/18 00:32:48;;;;;;;18.13;10.93;;;;;;;-4.51;100.00;100201.81;5035606;28;20080;-59
2022/12/18 00:35:33;;;;;;;17.48;9.55;;;;;;;-4.59;100.00;100183.78;5049990;28;20048;-59
2022/12/18 00:38:18;;;;;;;13.10;6.78;;;;;;;-4.40;100.00;100189.19;5051143;28;20059;-59
2022/12/18 00:41:05;;;;;;;20.90;9.40;;;;;;;-4.61;100.00;100177.78;5035943;28;20068;-60
2022/12/18 00:43:52;;;;;;;15.48;7.55;;;;;;;-4.54;100.00;100181.31;5050361;28;20048;-59
2022/12/18 00:46:37;;;;;;;14.25;6.88;;;;;;;-4.57;100.00;100159.94;5047921;28;20578;-60
2022/12/18 00:49:22;;;;;;;21.52;11.27;;;;;;;-4.62;100.00;100161.56;5050893;28;20057;-60
2022/12/18 00:52:07;;;;;;;16.30;7.90;;;;;;;-4.66;100.00;100167.47;5049992;28;20040;-60
2022/12/18 00:54:52;;;;;;;13.60;7.45;;;;;;;-4.61;100.00;100185.44;5050020;28;20037;-60
2022/12/18 00:57:37;;;;;;;18.13;7.70;;;;;;;-4.41;100.00;100207.94;5050699;28;20492;-65
2022/12/18 01:00:22;;;;;;;14.02;7.18;;;;;;;-4.14;100.00;100222.88;5051031;28;20122;-60
2022/12/18 01:03:07;;;;;;;16.70;8.43;;;;;;;-4.10;100.00;100228.91;5050685;28;20389;-61
2022/12/18 01:05:52;;;;;;;18.35;8.05;;;;;;;-3.93;100.00;100231.69;5049664;28;20049;-60
2022/12/18 01:08:37;;;;;;;14.30;7.95;;;;;;;-3.69;100.00;100238.03;5050809;28;20061;-61
2022/12/18 01:11:24;;;;;;;18.17;10.95;;;;;;;-3.49;100.00;100235.72;5049676;28;20051;-60
2022/12/18 01:14:09;;;;;;;19.40;11.75;;;;;;;-3.53;100.00;100235.66;5045104;28;20040;-63
2022/12/18 01:16:55;;;;;;;19.65;11.63;;;;;;;-3.64;100.00;100230.41;5035514;28;20472;-59
2022/12/18 01:19:40;;;;;;;20.90;11.90;;;;;;;-3.69;100.00;100238.03;5049956;28;20503;-60
2022/12/18 01:22:27;;;;;;;17.45;10.02;;;;;;;-3.61;100.00;100238.97;5048474;28;20159;-61
2022/12/18 01:25:12;;;;;;;18.17;10.15;;;;;;;-3.48;100.00;100239.16;5048563;28;20447;-60
2022/12/18 01:27:57;;;;;;;18.40;10.57;;;;;;;-3.24;100.00;100242.84;5049477;28;20880;-60
2022/12/18 01:30:43;;;;;;;18.23;10.77;;;;;;;-3.43;100.00;100240.06;5042571;28;20131;-61
2022/12/18 01:33:29;;;;;;;17.95;10.45;;;;;;;-3.38;100.00;100242.69;5038266;28;20132;-60
2022/12/18 01:36:22;;;;;;;17.88;11.27;;;;;;;-3.40;100.00;100245.22;5048836;28;20049;-60
2022/12/18 01:39:11;;;;;;;19.95;10.82;;;;;;;-3.26;100.00;100255.66;5049073;28;20052;-62
2022/12/18 01:42:08;;;;;;;21.75;11.52;;;;;;;-3.81;99.45;100250.66;5036681;28;20155;-61
2022/12/18 01:44:58;;;;;;;19.50;10.73;;;;;;;-3.74;99.79;100262.72;5049959;28;20056;-60
2022/12/18 01:47:54;;;;;;;18.55;10.85;;;;;;;-3.72;100.00;100261.88;5048982;28;20045;-62
2022/12/18 01:50:42;;;;;;;18.60;11.43;;;;;;;-3.83;98.86;100278.81;5041532;28;20041;-62
2022/12/18 01:53:28;;;;;;;20.17;10.48;;;;;;;-3.88;99.83;100278.75;5043755;28;20123;-60
2022/12/18 01:56:16;;;;;;;18.83;10.85;;;;;;;-4.03;99.20;100269.13;5049682;28;20055;-60
2022/12/18 01:59:04;;;;;;;17.58;10.80;;;;;;;-3.91;99.97;100273.56;5038628;28;20112;-60
2022/12/18 02:01:49;;;;;;;20.40;11.32;;;;;;;-3.92;100.00;100276.13;5049640;28;20040;-60
2022/12/18 02:04:34;;;;;;;19.48;10.65;;;;;;;-4.24;100.00;100274.75;5043845;28;20041;-60
2022/12/18 02:07:41;;;;;;;18.33;11.40;;;;;;;-3.99;100.00;100278.59;5041431;28;20056;-62
2022/12/18 02:10:29;;;;;;;20.60;12.27;;;;;;;-4.00;100.00;100278.56;5053029;28;20135;-61
2022/12/18 02:13:40;;;;;;;19.60;11.57;;;;;;;-4.33;100.00;100291.72;5049394;28;20412;-62
2022/12/18 02:16:50;;;;;;;20.05;11.43;;;;;;;-4.22;100.00;100299.56;5049652;28;20091;-59
2022/12/18 02:19:37;;;;;;;21.88;12.20;;;;;;;-4.12;100.00;100300.56;5049560;28;20060;-60
2022/12/18 02:22:40;;;;;;;23.13;12.02;;;;;;;-3.93;100.00;100310.25;5060589;28;20120;-60
2022/12/18 02:25:46;;;;;;;18.63;11.10;;;;;;;-3.98;100.00;100305.03;5053227;28;20079;-59
2022/12/18 02:28:43;;;;;;;18.83;11.73;;;;;;;-4.55;100.00;100310.06;5039109;28;20076;-59
2022/12/18 02:31:35;;;;;;;18.92;10.70;;;;;;;-4.19;100.00;100320.94;5047103;28;20450;-61
2022/12/18 02:34:23;;;;;;;19.20;12.30;;;;;;;-3.91;100.00;100318.81;5052303;28;20124;-60
2022/12/18 02:37:14;;;;;;;20.30;11.27;;;;;;;-3.95;100.00;100325.59;5053137;28;20049;-60
2022/12/18 02:40:00;;;;;;;20.80;11.85;;;;;;;-3.86;100.00;100317.19;5050481;28;20072;-59
2022/12/18 02:42:44;;;;;;;21.58;12.75;;;;;;;-4.06;100.00;100325.41;5037706;28;20509;-59
2022/12/18 02:45:32;;;;;;;19.88;11.23;;;;;;;-4.31;100.00;100316.47;5051811;28;20682;-59
2022/12/18 02:48:21;;;;;;;23.25;13.80;;;;;;;-4.50;100.00;100321.22;5044597;28;20077;-59
2022/12/18 02:51:22;;;;;;;21.27;12.18;;;;;;;-4.30;100.00;100330.97;5042883;28;20688;-61
2022/12/18 02:54:21;;;;;;;23.23;13.00;;;;;;;-4.00;100.00;100330.63;5046703;28;20048;-59
2022/12/18 02:57:22;;;;;;;21.35;12.23;;;;;;;-4.08;100.00;100333.06;5036968;28;20064;-61
2022/12/18 03:00:21;;;;;;;25.83;14.13;;;;;;;-4.35;100.00;100339.44;5053053;28;20041;-59
2022/12/18 03:03:14;;;;;;;24.15;14.75;;;;;;;-4.60;100.00;100345.78;5051820;28;20044;-61
2022/12/18 03:06:06;;;;;;;21.95;12.15;;;;;;;-4.31;100.00;100344.63;5051333;28;20141;-60
2022/12/18 03:08:57;;;;;;;22.02;12.25;;;;;;;-4.14;100.00;100347.44;5051832;28;20045;-60
2022/12/18 03:14:58;;;;;;;23.38;14.20;;;;;;;-4.10;100.00;100350.09;5041189;28;20053;-62
2022/12/18 03:18:11;;;;;;;24.13;14.57;;;;;;;-4.06;100.00;100357.84;5047925;28;20049;-62
2022/12/18 03:21:02;;;;;;;26.17;14.00;;;;;;;-4.27;100.00;100352.38;5049665;28;20049;-58
2022/12/18 03:23:51;;;;;;;22.92;13.85;;;;;;;-4.19;100.00;100349.94;5052327;28;20478;-59
2022/12/18 03:26:43;;;;;;;25.60;13.73;;;;;;;-4.13;100.00;100355.16;5051642;28;20044;-60
2022/12/18 03:29:43;;;;;;;23.90;13.10;;;;;;;-4.27;100.00;100349.81;5039661;28;20064;-58
2022/12/18 03:32:39;;;;;;;22.67;13.00;;;;;;;-4.19;100.00;100343.97;5036489;28;20447;-60
2022/12/18 03:35:29;;;;;;;27.33;14.90;;;;;;;-4.23;100.00;100345.63;5051407;28;20045;-61
2022/12/18 03:38:15;;;;;;;28.27;15.15;;;;;;;-4.45;100.00;100340.97;5037545;28;20045;-59
2022/12/18 03:41:07;;;;;;;24.88;14.50;;;;;;;-4.23;100.00;100343.06;5051548;28;20059;-60
2022/12/18 03:44:43;;;;;;;21.08;13.20;;;;;;;-4.15;100.00;100340.63;5051091;28;20037;-59
2022/12/18 03:47:35;;;;;;;27.58;14.55;;;;;;;-4.23;100.00;100336.22;5051913;28;20057;-59
2022/12/18 03:50:35;;;;;;;23.75;14.65;;;;;;;-3.93;100.00;100346.13;5050620;28;20114;-60
2022/12/18 03:53:27;;;;;;;23.45;12.85;;;;;;;-3.89;100.00;100345.31;5050938;28;20099;-60
2022/12/18 03:56:16;;;;;;;25.30;13.90;;;;;;;-4.06;100.00;100345.06;5050994;28;20051;-60
2022/12/18 03:59:04;;;;;;;28.35;15.30;;;;;;;-3.99;100.00;100357.09;5040677;28;20128;-59
2022/12/18 04:01:53;;;;;;;25.13;14.10;;;;;;;-4.01;100.00;100362.19;5050501;28;20492;-60
2022/12/18 04:04:39;;;;;;;24.98;13.32;;;;;;;-3.98;100.00;100359.69;5033627;28;20065;-61
2022/12/18 04:07:26;;;;;;;25.98;14.57;;;;;;;-3.92;100.00;100361.50;5051150;28;20051;-58
2022/12/18 04:10:12;;;;;;;24.42;13.52;;;;;;;-3.88;100.00;100359.84;5039757;28;20049;-62
2022/12/18 04:12:57;;;;;;;23.25;13.57;;;;;;;-3.90;100.00;100364.09;5034643;28;20488;-60
2022/12/18 04:15:44;;;;;;;23.23;13.63;;;;;;;-3.94;100.00;100367.41;5036344;28;20186;-59
2022/12/18 04:18:33;;;;;;;25.45;14.00;;;;;;;-3.99;100.00;100370.78;5050774;28;20048;-59
2022/12/18 04:21:20;;;;;;;27.45;14.52;;;;;;;-3.72;100.00;100381.47;5038753;28;20086;-60
2022/12/18 04:24:06;;;;;;;24.90;14.48;;;;;;;-3.52;100.00;100383.44;5043852;28;20040;-60
2022/12/18 04:26:53;;;;;;;23.08;14.13;;;;;;;-3.53;100.00;100392.88;5036402;28;20133;-60
2022/12/18 04:29:44;;;;;;;26.73;14.35;;;;;;;-3.66;100.00;100390.94;5040139;28;20047;-60
2022/12/18 04:32:29;;;;;;;26.85;14.35;;;;;;;-3.93;100.00;100397.34;5049467;28;20051;-60
2022/12/18 04:35:14;;;;;;;28.17;16.13;;;;;;;-4.06;100.00;100399.66;5049990;28;20045;-60
2022/12/18 04:38:03;;;;;;;30.58;16.90;;;;;;;-4.28;100.00;100404.41;5048580;28;20049;-59
2022/12/18 04:40:47;;;;;;;26.42;15.55;;;;;;;-4.23;100.00;100407.06;5051075;28;20041;-59
2022/12/18 04:43:39;;;;;;;28.48;15.68;;;;;;;-4.27;100.00;100406.13;5044296;28;20396;-64
2022/12/18 04:46:25;;;;;;;27.85;15.85;;;;;;;-4.28;100.00;100417.22;5042639;28;20045;-59
2022/12/18 04:49:13;;;;;;;24.10;14.88;;;;;;;-4.15;100.00;100418.31;5050500;28;20041;-61
2022/12/18 04:51:58;;;;;;;22.58;13.93;;;;;;;-3.97;100.00;100419.47;5050864;28;20101;-61
2022/12/18 04:54:43;;;;;;;25.13;14.98;;;;;;;-3.81;100.00;100423.16;5050736;28;20132;-61
2022/12/18 04:57:27;;;;;;;28.75;15.55;;;;;;;-3.93;100.00;100420.41;5051016;28;20055;-60
2022/12/18 05:00:13;;;;;;;28.27;15.77;;;;;;;-3.98;100.00;100423.72;5050575;28;20041;-60
2022/12/18 05:02:57;;;;;;;25.73;14.77;;;;;;;-3.92;100.00;100424.66;5050469;28;20479;-59
2022/12/18 05:05:42;;;;;;;27.35;15.18;;;;;;;-4.02;100.00;100437.31;5050698;28;20052;-59
2022/12/18 05:08:26;;;;;;;27.98;14.68;;;;;;;-4.05;100.00;100447.50;5036648;28;20386;-60
2022/12/18 05:11:15;;;;;;;27.88;15.15;;;;;;;-4.00;100.00;100442.47;5049233;28;20067;-60
2022/12/18 05:14:00;;;;;;;27.45;15.75;;;;;;;-4.05;100.00;100452.63;5049560;28;20080;-59
2022/12/18 05:16:44;;;;;;;29.35;15.65;;;;;;;-4.14;100.00;100462.66;5038703;28;20135;-59
2022/12/18 05:19:29;;;;;;;22.98;13.93;;;;;;;-4.08;100.00;100455.97;5050243;28;20148;-60
2022/12/18 05:22:14;;;;;;;23.90;14.48;;;;;;;-4.26;100.00;100453.09;5050372;28;20073;-59
2022/12/18 05:24:59;;;;;;;28.60;15.32;;;;;;;-4.05;100.00;100460.31;5040943;28;20458;-60
2022/12/18 05:27:44;;;;;;;28.27;14.98;;;;;;;-4.06;100.00;100460.28;5050129;28;20041;-61
2022/12/18 05:30:29;;;;;;;25.88;14.60;;;;;;;-4.17;100.00;100460.06;5050206;28;20045;-59
2022/12/18 05:33:14;;;;;;;26.60;14.88;;;;;;;-4.22;100.00;100470.22;5049385;28;20437;-60
2022/12/18 05:36:01;;;;;;;26.58;14.90;;;;;;;-4.01;100.00;100462.06;5049688;28;20049;-59
2022/12/18 05:38:45;;;;;;;29.90;15.05;;;;;;;-3.98;100.00;100471.50;5049465;28;20064;-58
2022/12/18 05:41:30;;;;;;;26.92;14.95;;;;;;;-3.96;100.00;100474.97;5050155;28;20045;-60
2022/12/18 05:44:14;;;;;;;26.67;15.60;;;;;;;-4.01;100.00;100474.88;5049114;28;20060;-60
2022/12/18 05:46:59;;;;;;;27.83;14.70;;;;;;;-4.07;100.00;100469.66;5049163;28;20041;-60
2022/12/18 05:49:44;;;;;;;29.17;16.67;;;;;;;-4.13;100.00;100470.38;5048630;28;20701;-60
2022/12/18 05:52:28;;;;;;;29.48;15.80;;;;;;;-4.16;100.00;100474.59;5048789;28;20053;-59
2022/12/18 05:55:13;;;;;;;30.33;15.63;;;;;;;-4.47;100.00;100478.25;5046715;28;20053;-59
2022/12/18 05:57:57;;;;;;;30.63;16.52;;;;;;;-4.59;100.00;100476.34;5044897;28;20101;-59
2022/12/18 06:00:45;;;;;;;25.08;14.35;;;;;;;-4.58;100.00;100475.50;5047137;28;20507;-59
2022/12/18 06:03:29;;;;;;;28.67;16.05;;;;;;;-4.35;100.00;100480.22;5049260;28;20049;-59
2022/12/18 06:06:20;;;;;;;30.98;16.35;;;;;;;-4.17;100.00;100486.53;5045950;28;20072;-59
2022/12/18 06:09:09;;;;;;;27.55;15.05;;;;;;;-4.33;100.00;100486.25;5045715;28;20120;-58
2022/12/18 06:11:53;;;;;;;29.45;16.13;;;;;;;-4.30;100.00;100489.66;5047863;28;20495;-58
2022/12/18 06:14:38;;;;;;;30.10;15.82;;;;;;;-4.24;100.00;100492.34;5060433;28;20037;-58
2022/12/18 06:17:23;;;;;;;28.65;15.20;;;;;;;-4.37;100.00;100491.25;5047749;28;20573;-58
2022/12/18 06:20:08;;;;;;;29.38;15.65;;;;;;;-4.32;100.00;100502.44;5045911;28;20060;-58
2022/12/18 06:22:52;;;;;;;29.58;15.38;;;;;;;-4.37;100.00;100496.34;5042274;28;20041;-59
2022/12/18 06:25:38;;;;;;;32.55;16.45;;;;;;;-4.30;100.00;100498.22;5049366;28;20587;-59
2022/12/18 06:28:23;;;;;;;22.75;11.77;;;;;;;-4.26;100.00;100500.00;5044646;28;20061;-58
2022/12/18 06:31:08;;;;;;;27.77;14.50;;;;;;;-3.37;100.00;100490.50;5046364;28;20053;-59
2022/12/18 06:33:53;;;;;;;27.73;14.75;;;;;;;-3.64;100.00;100484.91;5035529;28;20041;-59
2022/12/18 06:36:38;;;;;;;20.90;11.30;;;;;;;-3.78;100.00;100501.75;5038955;28;20130;-59
2022/12/18 06:39:23;;;;;;;24.33;13.60;;;;;;;-3.83;100.00;100506.78;5049390;28;20053;-60
2022/12/18 06:42:07;;;;;;;19.38;11.02;;;;;;;-3.88;100.00;100516.97;5048101;28;20041;-59
2022/12/18 06:44:52;;;;;;;26.33;14.88;;;;;;;-4.02;100.00;100521.81;5049456;28;20131;-58
2022/12/18 06:47:37;;;;;;;25.92;13.65;;;;;;;-4.05;100.00;100521.78;5049067;28;20407;-57
2022/12/18 06:50:22;;;;;;;25.38;13.02;;;;;;;-3.79;100.00;100528.22;5048903;28;20103;-58
2022/12/18 06:53:06;;;;;;;26.83;14.18;;;;;;;-3.47;100.00;100522.81;5048500;28;20098;-59
2022/12/18 06:55:52;;;;;;;26.30;14.25;;;;;;;-3.31;100.00;100526.47;5049771;28;20106;-58
2022/12/18 06:58:38;;;;;;;27.27;15.45;;;;;;;-3.28;100.00;100535.94;5049173;28;20551;-60
2022/12/18 07:01:23;;;;;;;25.02;13.27;;;;;;;-3.14;100.00;100537.03;5049059;28;20533;-59
2022/12/18 07:04:07;;;;;;;28.58;14.68;;;;;;;-2.67;99.88;100548.00;5040339;28;20045;-60
2022/12/18 07:06:52;;;;;;;29.80;15.35;;;;;;;-2.54;96.57;100554.16;5037085;28;20053;-61
2022/12/18 07:09:37;;;;;;;28.05;14.73;;;;;;;-2.54;99.30;100561.88;5040207;28;20056;-59
2022/12/18 07:12:21;;;;;;;26.02;13.10;;;;;;;-2.38;96.23;100568.06;5052769;28;20044;-61
2022/12/18 07:15:06;;;;;;;29.23;14.43;;;;;;;-2.37;95.95;100576.66;5041341;28;20045;-59
2022/12/18 07:17:51;;;;;;;26.17;13.50;;;;;;;-2.22;93.94;100578.56;5052836;28;20094;-61
2022/12/18 07:20:36;;;;;;;28.95;14.20;;;;;;;-1.84;92.54;100577.31;5052659;28;20284;-60
2022/12/18 07:23:20;;;;;;;30.88;15.77;;;;;;;-1.75;90.31;100584.28;5052971;28;20185;-62
2022/12/18 07:26:09;;;;;;;27.02;15.07;;;;;;;-1.63;90.83;100594.69;5051357;28;20111;-59
2022/12/18 07:28:57;;;;;;;32.10;16.33;;;;;;;-1.03;89.19;100588.38;5052427;28;20065;-60
2022/12/18 07:31:42;;;;;;;28.95;15.15;;;;;;;-0.79;87.49;100586.00;5045013;28;20049;-61
2022/12/18 07:34:26;;;;;;;33.03;17.40;;;;;;;-1.25;90.13;100588.22;5049257;28;20051;-59
2022/12/18 07:37:11;;;;;;;25.85;15.40;;;;;;;-0.84;93.73;100593.69;5046383;28;20140;-61
2022/12/18 07:39:56;;;;;;;29.23;16.33;;;;;;;-0.58;89.34;100605.03;5043920;28;20060;-61
2022/12/18 07:42:41;;;;;;;24.98;14.00;;;;;;;-0.46;89.71;100610.28;5049207;28;20045;-62
2022/12/18 07:45:25;;;;;;;23.92;13.20;;;;;;;0.33;90.70;100621.81;5046386;28;20173;-60
2022/12/18 07:48:10;;;;;;;33.58;17.15;;;;;;;0.77;86.00;100617.63;5045130;28;20039;-60
2022/12/18 07:51:03;;;;;;;26.27;14.75;;;;;;;0.49;85.05;100617.56;5049600;28;20048;-59
2022/12/18 07:53:48;;;;;;;27.67;15.23;;;;;;;1.05;82.51;100624.53;5051488;28;20056;-60
2022/12/18 07:56:33;;;;;;;30.55;14.80;;;;;;;1.15;78.91;100610.78;5051174;28;20148;-60
2022/12/18 07:59:18;;;;;;;27.30;14.75;;;;;;;1.59;80.74;100615.91;5051219;28;20134;-58
2022/12/18 08:02:03;;;;;;;30.58;16.45;;;;;;;2.04;75.01;100631.28;5049251;28;20037;-60
2022/12/18 08:04:47;;;;;;;29.25;14.77;;;;;;;2.08;77.80;100627.84;5049117;28;20055;-59
2022/12/18 08:07:32;;;;;;;27.45;14.27;;;;;;;2.20;74.41;100624.34;5051367;28;20087;-59
2022/12/18 08:10:17;;;;;;;28.75;14.52;;;;;;;2.33;73.31;100635.50;5044456;28;20059;-59
2022/12/18 08:13:01;;;;;;;26.92;15.07;;;;;;;2.51;73.29;100649.22;5050902;28;20484;-60
2022/12/18 08:15:46;;;;;;;30.92;15.93;;;;;;;2.63;72.44;100652.63;5050177;28;20037;-60
2022/12/18 08:18:33;;;;;;;33.03;15.90;;;;;;;2.98;72.44;100646.38;5045361;28;20041;-59
2022/12/18 08:21:21;;;;;;;27.70;15.27;;;;;;;3.42;71.90;100640.84;5051161;28;20057;-60
2022/12/18 08:24:06;;;;;;;26.27;13.98;;;;;;;3.56;70.59;100644.16;5048454;28;20053;-60
2022/12/18 08:26:51;;;;;;;26.33;15.00;;;;;;;3.67;67.05;100646.63;5048381;28;20052;-60
2022/12/18 08:29:35;;;;;;;29.98;14.25;;;;;;;4.02;72.30;100652.34;5051611;28;20086;-62
2022/12/18 08:32:20;;;;;;;25.35;14.00;;;;;;;2.69;74.39;100655.19;5051131;28;20183;-60
2022/12/18 08:35:05;;;;;;;28.50;15.50;;;;;;;2.57;74.45;100659.56;5060495;28;20040;-60
2022/12/18 08:37:50;;;;;;;26.27;14.10;;;;;;;2.25;75.66;100645.03;5049103;28;20059;-60
2022/12/18 08:40:35;;;;;;;28.95;14.80;;;;;;;2.41;73.69;100655.31;5027146;28;20140;-60
2022/12/18 08:46:25;;;;;;;26.15;14.93;;;;;;;4.01;66.37;100650.63;5042628;28;20614;-60
2022/12/18 08:49:11;;;;;;;26.42;14.15;;;;;;;4.22;65.93;100655.56;5051253;28;20497;-60
2022/12/18 08:51:59;;;;;;;24.70;13.77;;;;;;;3.61;68.26;100658.81;5047414;28;20072;-60
2022/12/18 08:54:44;;;;;;;33.47;15.32;;;;;;;3.68;70.01;100655.28;5050841;28;20044;-60
2022/12/18 08:57:28;;;;;;;24.55;13.45;;;;;;;4.44;70.06;100658.75;5050231;28;20056;-60
2022/12/18 09:00:13;;;;;;;24.65;13.05;;;;;;;3.97;69.65;100663.63;5049108;28;20045;-60
2022/12/18 09:02:58;;;;;;;22.77;12.60;;;;;;;3.88;69.55;100662.88;5050588;28;20564;-60
2022/12/18 09:05:45;;;;;;;28.42;14.93;;;;;;;4.24;66.07;100661.63;5049666;28;20053;-61
2022/12/18 09:08:29;;;;;;;23.50;13.48;;;;;;;2.76;70.33;100674.97;5050507;28;20118;-60
2022/12/18 09:11:20;;;;;;;27.25;14.35;;;;;;;2.44;72.12;100679.44;5036998;28;20385;-60
2022/12/18 09:14:04;;;;;;;27.27;13.73;;;;;;;2.46;72.82;100672.50;5048766;28;20099;-60
2022/12/18 09:16:49;;;;;;;25.23;13.65;;;;;;;1.97;71.17;100678.75;5050413;28;20049;-59
2022/12/18 09:19:34;;;;;;;27.35;14.23;;;;;;;1.81;73.08;100671.00;5049633;28;20118;-59
2022/12/18 09:22:19;;;;;;;27.67;15.15;;;;;;;2.88;71.94;100671.47;5049828;28;20075;-59
2022/12/18 09:25:07;;;;;;;25.08;14.27;;;;;;;3.00;72.72;100667.06;5050292;28;20041;-62
2022/12/18 09:27:52;;;;;;;26.67;14.70;;;;;;;3.29;73.23;100666.00;5037770;28;20041;-59
2022/12/18 09:30:42;;;;;;;22.15;13.00;;;;;;;3.33;71.81;100673.72;5048839;28;20049;-60
2022/12/18 09:33:27;;;;;;;25.57;15.23;;;;;;;2.92;68.13;100680.06;5067411;28;20056;-60
2022/12/18 09:36:14;;;;;;;28.08;14.32;;;;;;;2.48;71.05;100675.09;5048456;28;20044;-60
2022/12/18 09:38:59;;;;;;;26.75;13.85;;;;;;;1.72;73.94;100681.34;5049705;28;20051;-60
2022/12/18 09:41:58;;;;;;;27.42;15.32;;;;;;;2.11;71.59;100685.56;5049664;28;20465;-59
2022/12/18 09:44:50;;;;;;;28.27;14.75;;;;;;;2.30;71.97;100682.06;5046526;28;20526;-59
2022/12/18 09:47:39;;;;;;;29.70;16.08;;;;;;;2.11;70.40;100681.28;5045505;28;20071;-60
2022/12/18 09:50:35;;;;;;;30.83;16.38;;;;;;;3.12;76.10;100684.25;5045391;28;20483;-57
2022/12/18 09:53:24;;;;;;;27.35;14.40;;;;;;;2.93;76.16;100684.38;5060840;28;20443;-57
2022/12/18 09:56:16;;;;;;;27.58;14.30;;;;;;;3.02;82.22;100670.50;5049039;28;20117;-55
2022/12/18 09:59:03;;;;;;;30.55;15.82;;;;;;;1.88;73.10;100678.75;5058245;28;20049;-59
2022/12/18 10:01:48;;;;;;;26.27;15.10;;;;;;;1.11;72.63;100671.00;5047241;28;20127;-64
2022/12/18 10:04:32;;;;;;;31.42;15.88;;;;;;;0.84;78.75;100664.97;5045079;28;20041;-62
2022/12/18 10:07:27;;;;;;;25.75;14.88;;;;;;;1.28;78.82;100665.88;5045596;28;20568;-58
2022/12/18 10:10:43;;;;;;;30.80;16.08;;;;;;;1.92;74.24;100662.38;5048493;28;20041;-60
2022/12/18 10:13:42;;;;;;;26.95;15.15;;;;;;;1.83;77.42;100661.53;5039140;28;20068;-61
2022/12/18 10:17:01;;;;;;;28.38;15.13;;;;;;;1.77;74.96;100652.91;5045432;28;20556;-61
2022/12/18 10:20:10;;;;;;;28.27;15.70;;;;;;;1.96;71.84;100649.44;5023724;28;20420;-60
2022/12/18 10:23:04;;;;;;;25.67;14.48;;;;;;;2.17;70.96;100657.13;5022929;28;20433;-60
2022/12/18 10:26:01;;;;;;;30.98;15.70;;;;;;;1.86;71.33;100658.06;5012893;28;20805;-61
2022/12/18 10:28:46;;;;;;;27.58;15.98;;;;;;;1.88;71.69;100664.09;5010947;28;20057;-61
2022/12/18 10:31:31;;;;;;;28.58;15.77;;;;;;;1.46;73.05;100665.03;5024787;28;20045;-61
2022/12/18 10:34:15;;;;;;;31.48;16.55;;;;;;;1.19;72.99;100664.13;5012766;28;20049;-61
2022/12/18 10:37:06;;;;;;;31.67;16.60;;;;;;;1.57;73.27;100646.91;5006561;28;20053;-61
2022/12/18 10:40:09;;;;;;;33.22;18.08;;;;;;;1.43;72.52;100646.06;5021300;28;20045;-60
2022/12/18 10:43:14;;;;;;;30.52;17.33;;;;;;;2.00;71.13;100649.41;5028732;28;20057;-58
2022/12/18 10:46:07;;;;;;;33.35;18.02;;;;;;;2.29;69.41;100641.56;5016624;28;20140;-57
2022/12/18 10:48:55;;;;;;;29.77;15.75;;;;;;;2.30;67.57;100642.44;5011667;28;20045;-60
2022/12/18 10:51:40;;;;;;;32.42;17.38;;;;;;;2.49;68.46;100637.16;5026455;28;20076;-57
2022/12/18 10:54:25;;;;;;;32.42;16.65;;;;;;;2.13;74.59;100638.19;5029304;28;20133;-58
2022/12/18 10:57:37;;;;;;;31.65;18.40;;;;;;;2.07;78.29;100640.78;5044195;28;20098;-59
2022/12/18 11:00:28;;;;;;;30.13;17.35;;;;;;;3.55;94.29;100642.44;5049975;28;20128;-56
2022/12/18 11:03:39;;;;;;;34.72;18.92;;;;;;;3.26;81.70;100651.34;5050377;28;20421;-59
2022/12/18 11:06:25;;;;;;;31.67;17.42;;;;;;;2.90;85.54;100636.06;5047356;28;20051;-61
2022/12/18 11:09:20;;;;;;;31.73;17.67;;;;;;;3.17;76.79;100628.06;5050759;28;20115;-61
2022/12/18 11:12:17;;;;;;;26.67;16.33;;;;;;;2.70;72.98;100636.19;5041318;28;20088;-63
2022/12/18 11:15:02;;;;;;;31.13;16.40;;;;;;;2.68;73.10;100637.91;5047377;28;20072;-61
2022/12/18 11:17:49;;;;;;;29.65;15.18;;;;;;;2.52;77.35;100638.00;5050410;28;20080;-63
2022/12/18 11:20:35;;;;;;;25.15;12.82;;;;;;;4.00;100.00;100627.31;5049462;28;20404;-58
2022/12/18 11:23:23;;;;;;;27.95;15.90;;;;;;;5.50;77.76;100627.75;5050141;28;20052;-52
2022/12/18 11:26:10;;;;;;;29.67;16.52;;;;;;;3.70;75.09;100628.47;5024929;28;20053;-50
2022/12/18 11:29:18;;;;;;;33.78;18.60;;;;;;;3.25;68.74;100621.09;5050123;28;20041;-48
2022/12/18 11:32:14;;;;;;;25.40;14.68;;;;;;;3.96;63.69;100623.03;5050297;28;20048;-50
2022/12/18 11:35:13;;;;;;;24.73;14.02;;;;;;;3.75;62.52;100618.06;5043697;28;20102;-49
2022/12/18 11:38:02;;;;;;;39.60;15.23;;;;;;;5.88;100.00;100620.97;5041366;28;20049;-61
2022/12/18 11:41:09;;;;;;;27.65;13.95;;;;;;;8.90;86.56;100621.25;5051077;28;20053;-60
2022/12/18 11:44:00;;;;;;;25.92;13.27;;;;;;;9.65;78.75;100625.78;5047623;28;20537;-48
2022/12/18 11:46:51;;;;;;;27.27;15.02;;;;;;;6.55;60.18;100625.72;5042107;28;20400;-49
2022/12/18 11:49:36;;;;;;;28.13;15.75;;;;;;;5.04;64.58;100627.66;5049794;28;20045;-50
2022/12/18 11:52:40;;;;;;;25.73;14.40;;;;;;;4.81;59.83;100634.88;5042879;28;20437;-51
2022/12/18 11:56:25;;;;;;;27.40;14.60;;;;;;;3.71;65.42;100634.50;5050951;28;20052;-48
2022/12/18 11:59:33;;;;;;;25.02;14.13;;;;;;;5.03;63.14;100634.56;5001176;28;20204;-47
2022/12/18 12:02:34;;;;;;;25.60;14.95;;;;;;;5.46;59.50;100642.56;4999431;28;20105;-52
2022/12/18 12:05:34;;;;;;;29.45;15.43;;;;;;;6.03;60.36;100638.03;4996411;28;20121;-52
2022/12/18 12:08:47;;;;;;;28.95;16.15;;;;;;;5.92;54.70;100629.59;5008381;28;20053;-48
2022/12/18 12:11:56;;;;;;;26.35;13.82;;;;;;;6.03;57.82;100622.44;4994125;28;20054;-52
2022/12/18 12:14:54;;;;;;;26.35;13.93;;;;;;;5.85;54.86;100630.59;5005729;28;20049;-52
2022/12/18 12:17:56;;;;;;;26.63;14.07;;;;;;;6.81;55.04;100625.16;4987813;28;20169;-49
2022/12/18 12:20:51;;;;;;;;;;;;;;;5.61;58.82;100628.44;5009335;28;20476;-52
2022/12/18 12:23:50;;;;;;;41.78;15.93;;;;;;;4.97;59.68;100626.00;5008482;28;20032;-54
2022/12/18 12:26:53;;;;;;;38.35;16.50;;;;;;;6.38;65.58;100627.81;5008083;28;20628;-49
2022/12/18 12:30:05;;;;;;;35.35;15.25;;;;;;;5.98;61.24;100623.41;5002648;28;20119;-52
2022/12/18 12:33:14;;;;;;;28.92;15.77;;;;;;;6.01;62.67;100631.13;5018982;28;20099;-55
2022/12/18 12:36:21;;;;;;;28.98;14.43;;;;;;;6.24;61.23;100628.13;5049222;28;20037;-53
2022/12/18 12:39:11;;;;;;;29.58;15.02;;;;;;;6.31;63.65;100613.22;5046239;28;20098;-54
2022/12/18 12:45:05;;;;;;;25.17;14.43;;;;;;;6.37;59.68;100617.44;5040527;28;20407;-53
2022/12/18 12:47:52;;;;;;;25.83;14.57;;;;;;;7.57;61.73;100627.66;5047924;28;20052;-53
2022/12/18 12:50:38;;;;;;;33.45;14.98;;;;;;;7.60;65.24;100618.88;5048937;28;20041;-54
2022/12/18 12:53:32;;;;;;;49.85;21.30;;;;;;;7.84;65.90;100622.59;5049588;28;20537;-57
2022/12/18 12:56:19;;;;;;;42.38;19.50;;;;;;;8.45;56.67;100613.03;5039543;28;20053;-52
2022/12/18 12:59:35;;;;;;;27.35;13.88;;;;;;;6.90;55.15;100614.50;5046506;28;20041;-53
2022/12/18 13:02:22;;;;;;;32.63;15.65;;;;;;;6.64;67.94;100604.72;5040809;28;20049;-52